createdAt,value
2023-05-13T00:01:43.563Z,99.90
2023-05-13T00:04:13.200Z,99.90
2023-05-13T00:06:42.674Z,99.90
2023-05-13T00:09:12.746Z,99.90
2023-05-13T00:11:43.913Z,99.90
2023-05-13T00:14:13.485Z,99.90
2023-05-13T00:16:43.489Z,99.90
2023-05-13T00:19:13.491Z,99.90
2023-05-13T00:21:42.777Z,99.90
2023-05-13T00:24:12.847Z,99.90
2023-05-13T00:26:43.596Z,99.90
2023-05-13T00:29:13.618Z,99.90
2023-05-13T00:31:42.917Z,99.90
2023-05-13T00:34:12.665Z,99.90
2023-05-13T00:36:41.963Z,99.90
2023-05-13T00:39:11.932Z,99.90
2023-05-13T00:41:41.134Z,99.90
2023-05-13T00:44:14.405Z,99.90
2023-05-13T00:46:44.604Z,99.90
2023-05-13T00:49:14.322Z,99.90
2023-05-13T00:51:43.548Z,99.90
2023-05-13T00:54:13.184Z,99.90
2023-05-13T00:56:42.526Z,99.90
2023-05-13T00:59:13.586Z,99.90
2023-05-13T01:01:51.485Z,99.90
2023-05-13T01:04:32.629Z,99.90
2023-05-13T01:07:10.557Z,99.90
2023-05-13T01:09:49.951Z,99.90
2023-05-13T01:12:23.545Z,99.90
2023-05-13T01:15:05.303Z,99.90
2023-05-13T01:17:39.351Z,99.90
2023-05-13T01:20:11.450Z,99.90
2023-05-13T01:22:42.215Z,99.90
2023-05-13T01:25:11.794Z,99.90
2023-05-13T01:27:41.383Z,99.90
2023-05-13T01:30:12.554Z,99.90
2023-05-13T01:32:42.886Z,99.90
2023-05-13T01:35:13.511Z,99.90
2023-05-13T01:37:45.243Z,99.90
2023-05-13T01:40:31.035Z,99.90
2023-05-13T01:43:01.982Z,99.90
2023-05-13T01:45:33.515Z,99.90
2023-05-13T01:48:02.880Z,99.90
2023-05-13T01:50:32.761Z,99.90
2023-05-13T01:53:03.492Z,99.90
2023-05-13T01:55:33.095Z,99.90
2023-05-13T01:58:02.349Z,99.90
2023-05-13T02:00:31.935Z,99.90
2023-05-13T02:03:01.392Z,99.90
2023-05-13T02:05:33.412Z,99.90
2023-05-13T02:08:04.204Z,99.90
2023-05-13T02:10:33.932Z,99.90
2023-05-13T02:13:04.198Z,99.90
2023-05-13T02:15:33.760Z,99.90
2023-05-13T02:18:03.029Z,99.90
2023-05-13T02:20:32.696Z,99.90
2023-05-13T02:23:03.535Z,99.90
2023-05-13T02:25:33.508Z,99.90
2023-05-13T02:28:02.780Z,99.90
2023-05-13T02:30:32.696Z,99.90
2023-05-13T02:33:03.238Z,99.90
2023-05-13T02:35:32.594Z,99.90
2023-05-13T02:38:04.623Z,99.90
2023-05-13T02:40:34.289Z,99.90
2023-05-13T02:43:03.631Z,99.90
2023-05-13T02:45:33.505Z,99.90
2023-05-13T02:48:02.813Z,99.90
2023-05-13T02:50:32.546Z,99.90
2023-05-13T02:53:03.463Z,99.90
2023-05-13T02:55:33.000Z,99.90
2023-05-13T02:58:02.218Z,99.90
2023-05-13T03:00:31.877Z,99.90
2023-05-13T03:03:01.194Z,99.90
2023-05-13T03:05:30.983Z,99.90
2023-05-13T03:08:00.216Z,99.90
2023-05-13T03:10:31.442Z,99.90
2023-05-13T03:13:00.699Z,99.90
2023-05-13T03:15:30.289Z,99.90
2023-05-13T03:17:59.711Z,99.90
2023-05-13T03:20:29.319Z,99.90
2023-05-13T03:22:59.146Z,99.90
2023-05-13T03:25:28.727Z,99.90
2023-05-13T03:27:59.608Z,99.90
2023-05-13T03:30:29.129Z,99.90
2023-05-13T03:32:59.371Z,99.90
2023-05-13T03:35:28.698Z,99.90
2023-05-13T03:37:58.272Z,99.90
2023-05-13T03:40:27.614Z,99.90
2023-05-13T03:42:58.643Z,99.90
2023-05-13T03:45:27.940Z,99.90
2023-05-13T03:47:57.913Z,99.90
2023-05-13T03:50:27.702Z,99.90
2023-05-13T03:52:58.236Z,99.90
2023-05-13T03:55:27.477Z,99.90
2023-05-13T03:57:58.598Z,99.90
2023-05-13T04:00:27.792Z,99.90
2023-05-13T04:02:57.742Z,99.90
2023-05-13T04:05:27.041Z,99.90
2023-05-13T04:07:56.758Z,99.90
2023-05-13T04:10:25.987Z,99.90
2023-05-13T04:12:55.539Z,99.90
2023-05-13T04:15:26.278Z,99.90
2023-05-13T04:17:55.861Z,99.90
2023-05-13T04:20:25.289Z,99.90
2023-05-13T04:22:54.902Z,99.90
2023-05-13T04:25:24.125Z,99.90
2023-05-13T04:27:54.333Z,99.90
2023-05-13T04:30:23.769Z,99.90
2023-05-13T04:32:55.318Z,99.90
2023-05-13T04:35:24.981Z,99.90
2023-05-13T04:37:55.105Z,99.90
2023-05-13T04:40:24.388Z,99.90
2023-05-13T04:42:55.306Z,99.90
2023-05-13T04:45:25.225Z,99.90
2023-05-13T04:47:58.378Z,99.90
2023-05-13T04:50:27.941Z,99.90
2023-05-13T04:52:58.414Z,99.90
2023-05-13T04:55:27.945Z,99.90
2023-05-13T04:57:58.007Z,99.90
2023-05-13T05:00:27.461Z,99.90
2023-05-13T05:02:58.860Z,99.90
2023-05-13T05:05:28.166Z,99.90
2023-05-13T05:07:58.402Z,99.90
2023-05-13T05:10:27.857Z,99.90
2023-05-13T05:12:57.570Z,99.90
2023-05-13T05:15:26.828Z,99.90
2023-05-13T05:17:58.561Z,99.90
2023-05-13T05:20:28.031Z,99.90
2023-05-13T05:22:58.032Z,99.90
2023-05-13T05:25:28.247Z,99.90
2023-05-13T05:27:58.414Z,99.90
2023-05-13T05:30:27.832Z,99.90
2023-05-13T05:32:59.289Z,99.90
2023-05-13T05:35:28.724Z,99.90
2023-05-13T05:37:59.041Z,99.90
2023-05-13T05:40:28.626Z,99.90
2023-05-13T05:42:58.193Z,99.90
2023-05-13T05:45:27.587Z,99.90
2023-05-13T05:47:58.709Z,99.90
2023-05-13T05:50:28.348Z,99.90
2023-05-13T05:52:59.493Z,99.90
2023-05-13T05:55:29.278Z,99.90
2023-05-13T05:58:04.073Z,99.90
2023-05-13T06:00:33.962Z,99.90
2023-05-13T06:03:06.051Z,99.90
2023-05-13T06:05:35.627Z,99.90
2023-05-13T06:08:05.264Z,99.90
2023-05-13T06:10:34.494Z,99.90
2023-05-13T06:13:04.628Z,99.90
2023-05-13T06:15:34.081Z,99.90
2023-05-13T06:18:06.008Z,99.90
2023-05-13T06:20:35.349Z,99.90
2023-05-13T06:23:05.079Z,99.90
2023-05-13T06:25:34.386Z,99.90
2023-05-13T06:28:04.320Z,99.90
2023-05-13T06:30:33.586Z,99.90
2023-05-13T06:33:04.691Z,99.90
2023-05-13T06:35:34.342Z,99.90
2023-05-13T06:38:03.921Z,99.90
2023-05-13T06:40:33.490Z,99.90
2023-05-13T06:43:03.434Z,99.90
2023-05-13T06:45:32.883Z,99.90
2023-05-13T06:48:02.938Z,99.90
2023-05-13T06:50:33.996Z,99.90
2023-05-13T06:53:04.411Z,99.90
2023-05-13T06:55:36.181Z,99.90
2023-05-13T06:58:05.937Z,99.90
2023-05-13T07:00:38.138Z,99.90
2023-05-13T07:03:08.784Z,99.90
2023-05-13T07:05:39.503Z,99.90
2023-05-13T07:08:09.163Z,99.90
2023-05-13T07:10:38.627Z,99.90
2023-05-13T07:13:08.405Z,99.90
2023-05-13T07:15:37.619Z,99.90
2023-05-13T07:18:07.927Z,99.90
2023-05-13T07:20:39.133Z,99.90
2023-05-13T07:23:08.884Z,99.90
2023-05-13T07:25:38.621Z,99.90
2023-05-13T07:28:08.377Z,99.90
2023-05-13T07:30:37.739Z,99.90
2023-05-13T07:33:07.919Z,99.90
2023-05-13T07:35:39.027Z,99.90
2023-05-13T07:38:12.171Z,99.90
2023-05-13T07:40:42.075Z,99.90
2023-05-13T07:43:13.879Z,99.90
2023-05-13T07:45:43.082Z,99.90
2023-05-13T07:48:13.023Z,98.10
2023-05-13T07:50:43.796Z,98.70
2023-05-13T07:53:13.720Z,98.30
2023-05-13T07:55:43.466Z,98.10
2023-05-13T07:58:13.163Z,97.90
2023-05-13T08:00:42.623Z,96.20
2023-05-13T08:03:12.730Z,96.00
2023-05-13T08:05:43.602Z,96.00
2023-05-13T08:08:13.544Z,95.60
2023-05-13T08:10:42.831Z,94.70
2023-05-13T08:13:12.480Z,95.40
2023-05-13T08:15:41.728Z,91.20
2023-05-13T08:18:11.389Z,92.20
2023-05-13T08:20:41.116Z,91.30
2023-05-13T08:23:12.538Z,91.70
2023-05-13T08:25:42.035Z,90.50
2023-05-13T08:28:12.084Z,90.90
2023-05-13T08:30:44.655Z,90.30
2023-05-13T08:33:14.446Z,91.20
2023-05-13T08:35:44.904Z,90.20
2023-05-13T08:38:16.058Z,88.20
2023-05-13T08:40:45.402Z,86.60
2023-05-13T08:43:17.612Z,86.70
2023-05-13T08:45:48.775Z,83.10
2023-05-13T08:48:20.247Z,82.40
2023-05-13T08:50:50.175Z,83.80
2023-05-13T08:53:22.940Z,81.60
2023-05-13T08:55:53.259Z,81.40
2023-05-13T08:58:23.189Z,81.90
2023-05-13T09:00:54.281Z,80.60
2023-05-13T09:03:24.517Z,78.30
2023-05-13T09:05:53.855Z,78.30
2023-05-13T09:08:25.061Z,76.10
2023-05-13T09:10:55.830Z,76.50
2023-05-13T09:13:25.426Z,76.40
2023-05-13T09:15:55.456Z,74.40
2023-05-13T09:18:32.140Z,76.70
2023-05-13T09:21:25.200Z,74.60
2023-05-13T09:24:13.404Z,75.20
2023-05-13T09:26:44.218Z,75.30
2023-05-13T09:29:18.880Z,76.90
2023-05-13T09:31:50.255Z,76.80
2023-05-13T09:34:31.189Z,74.70
2023-05-13T09:37:03.329Z,75.40
2023-05-13T09:39:39.696Z,75.20
2023-05-13T09:42:16.803Z,72.40
2023-05-13T09:44:47.646Z,73.40
2023-05-13T09:47:18.167Z,74.40
2023-05-13T09:49:56.993Z,72.60
2023-05-13T09:52:26.207Z,72.40
2023-05-13T09:54:58.749Z,73.00
2023-05-13T09:57:29.903Z,73.20
2023-05-13T10:00:00.504Z,72.10
2023-05-13T10:02:30.369Z,73.00
2023-05-13T10:05:00.711Z,73.60
2023-05-13T10:07:33.379Z,74.20
2023-05-13T10:10:06.175Z,73.70
2023-05-13T10:12:37.813Z,75.00
2023-05-13T10:15:08.474Z,73.30
2023-05-13T10:17:38.292Z,71.20
2023-05-13T10:20:09.015Z,71.60
2023-05-13T10:22:39.563Z,71.60
2023-05-13T10:25:11.698Z,71.90
2023-05-13T10:27:42.253Z,70.80
2023-05-13T10:30:13.636Z,69.70
2023-05-13T10:32:43.525Z,68.40
2023-05-13T10:35:14.364Z,68.20
2023-05-13T10:38:02.007Z,68.00
2023-05-13T10:40:51.927Z,66.70
2023-05-13T10:43:22.333Z,67.50
2023-05-13T10:45:53.740Z,66.70
2023-05-13T10:48:24.115Z,64.80
2023-05-13T10:50:56.452Z,63.60
2023-05-13T10:53:27.465Z,61.50
2023-05-13T10:55:59.930Z,58.70
2023-05-13T10:58:33.644Z,56.90
2023-05-13T11:01:28.638Z,56.20
2023-05-13T11:04:00.036Z,53.20
2023-05-13T11:06:35.346Z,52.90
2023-05-13T11:09:07.521Z,53.70
2023-05-13T11:11:38.789Z,54.50
2023-05-13T11:14:18.132Z,55.60
2023-05-13T11:16:49.795Z,54.40
2023-05-13T11:19:23.254Z,54.90
2023-05-13T11:21:55.937Z,55.60
2023-05-13T11:24:25.755Z,56.00
2023-05-13T11:26:59.288Z,57.30
2023-05-13T11:29:32.970Z,57.30
2023-05-13T11:32:04.450Z,56.40
2023-05-13T11:34:34.548Z,54.30
2023-05-13T11:37:11.433Z,52.90
2023-05-13T11:39:42.722Z,50.90
2023-05-13T11:42:14.036Z,50.60
2023-05-13T11:44:48.431Z,49.20
2023-05-13T11:47:27.900Z,48.70
2023-05-13T11:49:57.585Z,48.50
2023-05-13T11:52:29.707Z,47.30
2023-05-13T11:54:59.855Z,47.40
2023-05-13T11:57:33.653Z,46.80
2023-05-13T12:00:05.153Z,46.50
2023-05-13T12:02:37.975Z,45.30
2023-05-13T12:05:08.869Z,45.50
2023-05-13T12:07:39.820Z,45.40
2023-05-13T12:10:10.061Z,46.40
2023-05-13T12:12:42.261Z,47.50
2023-05-13T12:15:14.322Z,48.80
2023-05-13T12:17:44.419Z,49.90
2023-05-13T12:20:15.701Z,50.90
2023-05-13T12:22:53.802Z,52.00
2023-05-13T12:25:43.110Z,50.90
2023-05-13T12:28:17.598Z,49.40
2023-05-13T12:30:53.321Z,48.30
2023-05-13T12:33:24.552Z,47.90
2023-05-13T12:35:55.598Z,46.80
2023-05-13T12:38:25.974Z,46.50
2023-05-13T12:40:55.501Z,46.60
2023-05-13T12:43:26.554Z,45.30
2023-05-13T12:46:02.199Z,45.50
2023-05-13T12:48:35.194Z,46.50
2023-05-13T12:51:04.506Z,47.10
2023-05-13T12:53:34.449Z,47.70
2023-05-13T12:56:03.799Z,48.40
2023-05-13T12:58:35.183Z,48.40
2023-05-13T13:01:04.460Z,49.20
2023-05-13T13:03:34.323Z,49.40
2023-05-13T13:06:03.630Z,50.30
2023-05-13T13:08:33.593Z,51.40
2023-05-13T13:11:03.057Z,52.40
2023-05-13T13:13:35.174Z,53.30
2023-05-13T13:16:06.505Z,54.30
2023-05-13T13:18:36.453Z,55.30
2023-05-13T13:21:07.431Z,56.20
2023-05-13T13:23:37.274Z,57.30
2023-05-13T13:26:06.672Z,58.40
2023-05-13T13:28:37.709Z,59.50
2023-05-13T13:31:08.038Z,60.60
2023-05-13T13:33:37.898Z,61.50
2023-05-13T13:36:07.669Z,61.00
2023-05-13T13:38:37.305Z,61.30
2023-05-13T13:41:06.574Z,60.90
2023-05-13T13:43:37.908Z,58.80
2023-05-13T13:46:07.488Z,58.00
2023-05-13T13:48:37.159Z,57.30
2023-05-13T13:51:06.994Z,55.70
2023-05-13T13:53:36.201Z,55.50
2023-05-13T13:56:05.629Z,54.80
2023-05-13T13:58:37.437Z,55.40
2023-05-13T14:01:06.817Z,55.80
2023-05-13T14:03:36.493Z,55.80
2023-05-13T14:06:06.572Z,56.20
2023-05-13T14:08:36.156Z,57.40
2023-05-13T14:11:05.585Z,58.80
2023-05-13T14:13:36.711Z,60.20
2023-05-13T14:16:06.932Z,59.50
2023-05-13T14:18:36.660Z,59.60
2023-05-13T14:21:06.288Z,59.10
2023-05-13T14:23:36.024Z,59.20
2023-05-13T14:26:05.394Z,59.40
2023-05-13T14:28:36.920Z,59.80
2023-05-13T14:31:06.537Z,59.70
2023-05-13T14:33:36.207Z,59.40
2023-05-13T14:36:05.847Z,59.60
2023-05-13T14:38:35.453Z,57.90
2023-05-13T14:41:04.827Z,56.80
2023-05-13T14:43:34.424Z,55.50
2023-05-13T14:46:05.187Z,52.70
2023-05-13T14:48:34.811Z,52.20
2023-05-13T14:51:04.043Z,52.70
2023-05-13T14:53:33.679Z,53.00
2023-05-13T14:56:02.979Z,52.30
2023-05-13T14:58:32.760Z,52.30
2023-05-13T15:01:02.171Z,53.10
2023-05-13T15:03:33.448Z,53.60
2023-05-13T15:06:03.023Z,53.50
2023-05-13T15:08:32.625Z,53.90
2023-05-13T15:11:01.937Z,53.50
2023-05-13T15:13:35.401Z,52.80
2023-05-13T15:16:04.906Z,53.30
2023-05-13T15:18:36.225Z,53.70
2023-05-13T15:21:05.583Z,53.30
2023-05-13T15:23:35.230Z,53.10
2023-05-13T15:26:04.991Z,52.60
2023-05-13T15:28:34.204Z,53.00
2023-05-13T15:31:03.490Z,51.50
2023-05-13T15:33:34.701Z,52.00
2023-05-13T15:36:05.890Z,53.20
2023-05-13T15:38:35.705Z,54.20
2023-05-13T15:41:05.038Z,55.60
2023-05-13T15:43:34.707Z,56.80
2023-05-13T15:46:04.037Z,57.50
2023-05-13T15:48:35.435Z,57.30
2023-05-13T15:51:04.828Z,56.70
2023-05-13T15:53:34.579Z,57.10
2023-05-13T15:56:03.787Z,57.10
2023-05-13T15:58:33.433Z,57.20
2023-05-13T16:01:02.672Z,57.60
2023-05-13T16:03:32.241Z,56.30
2023-05-13T16:06:03.037Z,56.20
2023-05-13T16:08:32.635Z,56.20
2023-05-13T16:11:01.878Z,56.80
2023-05-13T16:13:31.744Z,57.10
2023-05-13T16:16:01.122Z,57.00
2023-05-13T16:18:30.886Z,56.90
2023-05-13T16:21:01.743Z,57.20
2023-05-13T16:23:31.324Z,56.80
2023-05-13T16:26:00.710Z,57.00
2023-05-13T16:28:30.307Z,57.10
2023-05-13T16:30:59.641Z,56.70
2023-05-13T16:33:32.207Z,55.50
2023-05-13T16:36:03.099Z,56.50
2023-05-13T16:38:35.502Z,57.30
2023-05-13T16:41:06.004Z,57.50
2023-05-13T16:43:35.587Z,57.40
2023-05-13T16:46:04.861Z,56.50
2023-05-13T16:48:34.525Z,55.80
2023-05-13T16:51:05.402Z,56.00
2023-05-13T16:53:35.387Z,56.80
2023-05-13T16:56:04.905Z,56.60
2023-05-13T16:58:34.560Z,56.80
2023-05-13T17:01:03.835Z,57.70
2023-05-13T17:03:33.577Z,58.00
2023-05-13T17:06:03.426Z,57.80
2023-05-13T17:08:34.592Z,58.10
2023-05-13T17:11:03.901Z,58.40
2023-05-13T17:13:33.834Z,57.90
2023-05-13T17:16:03.087Z,57.60
2023-05-13T17:18:32.705Z,58.30
2023-05-13T17:21:04.122Z,58.70
2023-05-13T17:23:35.933Z,59.30
2023-05-13T17:26:05.213Z,60.80
2023-05-13T17:28:35.200Z,61.90
2023-05-13T17:31:04.928Z,62.80
2023-05-13T17:33:34.670Z,63.40
2023-05-13T17:36:04.253Z,63.70
2023-05-13T17:38:35.321Z,64.80
2023-05-13T17:41:05.105Z,65.90
2023-05-13T17:43:34.696Z,68.00
2023-05-13T17:46:04.376Z,69.40
2023-05-13T17:48:34.516Z,70.20
2023-05-13T17:51:03.817Z,69.10
2023-05-13T17:53:35.318Z,69.00
2023-05-13T17:56:05.070Z,69.60
2023-05-13T17:58:34.689Z,70.90
2023-05-13T18:01:04.276Z,72.20
2023-05-13T18:03:33.850Z,73.30
2023-05-13T18:06:03.234Z,73.70
2023-05-13T18:08:34.774Z,74.80
2023-05-13T18:11:04.389Z,76.60
2023-05-13T18:13:35.712Z,77.70
2023-05-13T18:16:06.352Z,79.30
2023-05-13T18:18:36.163Z,81.40
2023-05-13T18:21:05.514Z,83.80
2023-05-13T18:23:36.675Z,85.50
2023-05-13T18:26:06.158Z,88.00
2023-05-13T18:28:35.822Z,89.40
2023-05-13T18:31:05.321Z,90.40
2023-05-13T18:33:34.973Z,91.20
2023-05-13T18:36:04.250Z,91.60
2023-05-13T18:38:33.801Z,92.30
2023-05-13T18:41:05.226Z,92.90
2023-05-13T18:43:34.841Z,93.30
2023-05-13T18:46:04.198Z,94.30
2023-05-13T18:48:33.831Z,95.00
2023-05-13T18:51:03.241Z,96.10
2023-05-13T18:53:32.849Z,95.40
2023-05-13T18:56:03.587Z,94.80
2023-05-13T18:58:33.243Z,95.00
2023-05-13T19:01:02.568Z,94.40
2023-05-13T19:03:32.772Z,94.40
2023-05-13T19:06:02.106Z,93.50
2023-05-13T19:08:32.116Z,87.90
2023-05-13T19:11:01.655Z,88.10
2023-05-13T19:13:43.362Z,81.60
2023-05-13T19:16:16.629Z,80.80
2023-05-13T19:18:46.701Z,80.90
2023-05-13T19:21:16.014Z,81.50
2023-05-13T19:23:46.067Z,80.60
2023-05-13T19:26:15.480Z,79.90
2023-05-13T19:28:47.064Z,80.10
2023-05-13T19:31:16.303Z,81.00
2023-05-13T19:33:46.465Z,82.20
2023-05-13T19:36:15.871Z,84.50
2023-05-13T19:38:45.879Z,88.10
2023-05-13T19:41:15.498Z,90.20
2023-05-13T19:43:47.709Z,91.30
2023-05-13T19:46:17.497Z,93.00
2023-05-13T19:48:47.171Z,94.30
2023-05-13T19:51:16.401Z,95.80
2023-05-13T19:53:46.515Z,96.40
2023-05-13T19:56:15.802Z,96.80
2023-05-13T19:58:46.899Z,97.60
2023-05-13T20:01:15.797Z,97.90
2023-05-13T20:03:46.267Z,98.30
2023-05-13T20:06:15.844Z,98.60
2023-05-13T20:08:46.152Z,99.20
2023-05-13T20:11:15.710Z,99.60
2023-05-13T20:13:46.940Z,99.90
2023-05-13T20:16:16.269Z,99.90
2023-05-13T20:18:46.185Z,99.90
2023-05-13T20:21:16.467Z,99.90
2023-05-13T20:23:46.107Z,99.90
2023-05-13T20:26:15.681Z,99.90
2023-05-13T20:28:48.089Z,99.90
2023-05-13T20:31:18.313Z,99.90
2023-05-13T20:33:48.484Z,99.90
2023-05-13T20:36:18.266Z,99.90
2023-05-13T20:38:48.052Z,99.90
2023-05-13T20:41:17.464Z,99.90
2023-05-13T20:43:48.667Z,99.90
2023-05-13T20:46:18.163Z,99.90
2023-05-13T20:48:48.157Z,99.90
2023-05-13T20:51:17.438Z,99.90
2023-05-13T20:53:47.961Z,99.90
2023-05-13T20:56:17.761Z,99.90
2023-05-13T20:58:48.870Z,99.90
2023-05-13T21:01:17.798Z,99.90
2023-05-13T21:03:49.954Z,99.90
2023-05-13T21:06:19.386Z,99.90
2023-05-13T21:08:49.008Z,99.90
2023-05-13T21:11:18.203Z,99.90
2023-05-13T21:13:49.540Z,99.90
2023-05-13T21:16:18.916Z,99.90
2023-05-13T21:18:48.658Z,99.90
2023-05-13T21:21:17.944Z,99.90
2023-05-13T21:23:49.022Z,99.90
2023-05-13T21:26:18.348Z,99.90
2023-05-13T21:28:49.867Z,99.90
2023-05-13T21:31:18.853Z,99.90
2023-05-13T21:33:49.152Z,99.90
2023-05-13T21:36:18.718Z,99.90
2023-05-13T21:38:48.638Z,99.90
2023-05-13T21:41:20.167Z,99.90
2023-05-13T21:43:51.360Z,99.90
2023-05-13T21:46:21.133Z,99.90
2023-05-13T21:48:50.772Z,99.90
2023-05-13T21:51:20.032Z,99.90
2023-05-13T21:53:49.740Z,99.90
2023-05-13T21:56:19.157Z,99.90
2023-05-13T21:58:51.566Z,99.90
2023-05-13T22:01:22.557Z,99.90
2023-05-13T22:03:52.113Z,99.90
2023-05-13T22:06:21.583Z,99.90
2023-05-13T22:08:51.163Z,99.90
2023-05-13T22:11:20.365Z,99.90
2023-05-13T22:13:52.014Z,99.90
2023-05-13T22:16:21.751Z,99.90
2023-05-13T22:18:51.648Z,99.90
2023-05-13T22:21:21.106Z,99.90
2023-05-13T22:23:51.548Z,99.90
2023-05-13T22:26:22.088Z,99.90
2023-05-13T22:28:53.219Z,99.90
2023-05-13T22:31:22.120Z,99.90
2023-05-13T22:33:52.057Z,99.90
2023-05-13T22:36:21.319Z,99.90
2023-05-13T22:38:51.219Z,99.90
2023-05-13T22:41:23.875Z,99.90
2023-05-13T22:43:55.397Z,99.90
2023-05-13T22:46:25.122Z,99.90
2023-05-13T22:48:55.066Z,99.90
2023-05-13T22:51:24.532Z,99.90
2023-05-13T22:53:54.278Z,99.90
2023-05-13T22:56:23.567Z,99.90
2023-05-13T22:58:54.715Z,99.90
2023-05-13T23:01:23.594Z,99.90
2023-05-13T23:03:53.673Z,99.90
2023-05-13T23:06:22.957Z,99.90
2023-05-13T23:08:52.526Z,99.90
2023-05-13T23:11:21.752Z,99.90
2023-05-13T23:13:51.465Z,99.90
2023-05-13T23:16:22.260Z,99.90
2023-05-13T23:19:05.686Z,99.90
2023-05-13T23:21:35.575Z,99.90
2023-05-13T23:24:05.907Z,99.90
2023-05-13T23:26:35.208Z,99.90
2023-05-13T23:29:05.800Z,99.90
2023-05-13T23:31:36.704Z,99.90
2023-05-13T23:34:06.323Z,99.90
2023-05-13T23:36:35.773Z,99.90
2023-05-13T23:39:05.510Z,99.90
2023-05-13T23:41:36.055Z,99.90
2023-05-13T23:44:05.955Z,99.90
2023-05-13T23:46:36.634Z,99.90
2023-05-13T23:49:06.589Z,99.90
2023-05-13T23:51:36.137Z,99.90
2023-05-13T23:54:05.887Z,99.90
2023-05-13T23:56:35.144Z,99.90
2023-05-13T23:59:05.171Z,99.90
